Home > Products > Valid Products > TAF

000
FTUS46 KEKA 251729
TAFUKI
TAF
KUKI 251729Z 2518/2618 00000KT P6SM SKC
     FM252200 VRB03KT P6SM SKC
     FM260300 00000KT P6SM SKC=



000
FTUS46 KEKA 251729
TAFCEC
TAF
KCEC 251729Z 2518/2618 16008KT P6SM FEW250
     FM260000 13005KT P6SM FEW250
     FM261600 15005KT P6SM FEW250=



000
FTUS46 KEKA 251729
TAFACV
TAF
KACV 251729Z 2518/2618 VRB03KT P6SM FEW250
     FM252100 27004KT P6SM SKC
     FM260200 12003KT P6SM FEW250
     FM261600 15005KT P6SM FEW250=



000
FTUS46 KEKA 251640 AAA
TAFACV
TAF AMD
KACV 251640Z 2517/2612 08004KT P6SM FEW250
     FM251900 30004KT 4SM HZ SKC
     FM260300 15003KT P6SM FEW250=



000
FTUS46 KEKA 251507 AAA
TAFCEC
TAF AMD
KCEC 251507Z 2515/2612 03004KT P6SM FEW250
     FM251900 18006KT 4SM HZ FEW250
     FM260300 15003KT P6SM FEW250=



000
FTUS46 KEKA 251133
TAFCEC
TAF
KCEC 251133Z 2512/2612 03004KT 5SM BR BCFG SCT002
     FM251900 18006KT 4SM HZ FEW250
     FM260300 15003KT P6SM FEW250=



000
FTUS46 KEKA 251133
TAFUKI
TAF
KUKI 251133Z 2512/2612 19003KT P6SM SKC
     FM260900 00000KT 4SM BR SCT005=



000
FTUS46 KEKA 251133
TAFACV
TAF
KACV 251133Z 2512/2612 08004KT 6SM BR BCFG SCT002
     FM251900 30004KT 4SM HZ SKC
     FM260300 15003KT P6SM FEW250=



000
FTUS46 KEKA 251029 AAB
TAFACV
TAF AMD
KACV 251029Z 2510/2606 00000KT 6SM BR SCT007
     FM251300 00000KT 1/2SM FG OVC002
     FM251900 24004KT 4SM HZ SKC=



000
FTUS46 KEKA 251028 AAB
TAFCEC
TAF AMD
KCEC 251028Z 2510/2606 00000KT 6SM BR SCT002
     FM251300 00000KT 1/2SM FG BKN002
     FM251900 18006KT 4SM HZ FEW250=



000
FTUS46 KEKA 250832 AAA
TAFCEC
TAF AMD
KCEC 250832Z 2509/2606 00000KT 3SM BR SCT002
     FM251100 00000KT 1/2SM FG BKN002
     FM251900 18006KT 4SM HZ FEW250=



000
FTUS46 KEKA 250831 AAA
TAFUKI
TAF AMD
KUKI 250831Z 2509/2606 00000KT P6SM SKC
     FM251100 00000KT 5SM BR FEW003
     FM251700 00000KT P6SM SKC=



000
FTUS46 KEKA 250830 AAA
TAFACV
TAF AMD
KACV 250830Z 2509/2606 00000KT 3SM BR SCT007
     FM251100 00000KT 1/2SM FG OVC002
     FM251900 24004KT 4SM HZ SKC=



000
FTUS46 KEKA 250541
TAFCEC
TAF
KCEC 250541Z 2506/2606 00000KT 1SM BR SCT002
     FM250900 00000KT 1/2SM FG BKN002
     FM251900 18006KT 4SM HZ FEW250=



000
FTUS46 KEKA 250541
TAFACV
TAF
KACV 250541Z 2506/2606 00000KT 3SM BR BKN007
     FM250900 00000KT 1/2SM FG OVC002
     FM251900 24004KT 4SM HZ SKC=



000
FTUS46 KEKA 250541
TAFUKI
TAF
KUKI 250541Z 2506/2606 00000KT P6SM SKC
     FM250700 00000KT 5SM BR FEW003
     FM251700 00000KT P6SM SKC=



000
FTUS46 KEKA 250501 AAA
TAFCEC
TAF AMD
KCEC 250501Z 2505/2524 00000KT 1SM BR SCT002
     FM250900 00000KT 1/2SM FG BKN002
     FM251900 18006KT 4SM HZ FEW250=



000
FTUS46 KEKA 250233 AAA
TAFACV
TAF AMD
KACV 250233Z 2503/2524 VRB03KT 3SM BR SCT008
      TEMPO 2503/2505 2SM BR OVC008
     FM250500 00000KT 2SM BR OVC006
     FM250900 00000KT 1/2SM FG OVC002
     FM251900 28004KT 4SM HZ SCT250=



000
FTUS46 KEKA 242321
TAFCEC
TAF
KCEC 242321Z 2500/2524 36005KT 6SM HZ FEW250
     FM250100 36003KT 5SM HZ FEW250
     FM250300 36005KT 4SM HZ SCT050
     FM250500 VRB03KT 3SM BR SCT050
     FM250700 00000KT 1SM BR SCT250
     FM250900 00000KT 1/2SM FG SCT250
     FM251900 18006KT 4SM HZ FEW250=



000
FTUS46 KEKA 242321
TAFUKI
TAF
KUKI 242321Z 2500/2524 VRB03KT P6SM FEW250
     FM250200 00000KT P6SM FEW250
     FM250700 00000KT 5SM BR FEW250=



000
FTUS46 KEKA 242321
TAFACV
TAF
KACV 242321Z 2500/2524 VRB03KT 4SM HZ FEW250
     FM250200 VRB05KT 4SM BR SCT006
     FM250500 00000KT 2SM BR OVC006
     FM250900 00000KT 1/2SM FG OVC002
     FM251900 28004KT 4SM HZ SCT250=



000
FTUS46 KEKA 242201 CCC
TAFCEC
TAF COR
KCEC 242201Z 2418/2518 34005KT 6SM HZ FEW250
      TEMPO 2422/2424 VRB03KT 5SM HZ
     FM250000 35006KT 6SM HZ FEW250
     FM250200 36005KT 6SM HZ SCT050
     FM250500 05003KT 6SM BR SCT050
     FM250900 00000KT 3SM BR SCT250=



000
FTUS46 KEKA 242159 CCD
TAFACV
TAF COR
KACV 242159Z 2418/2518 32004KT 6SM HZ FEW250
      TEMPO 2422/2424 VRB03KT 4SM HZ
     FM250000 VRB05KT 4SM BR SCT006
     FM250600 00000KT 2SM BR OVC006
     FM250800 00000KT 1/2SM FG OVC001=



000
FTUS46 KEKA 242042 CCC
TAFACV
TAF COR
KACV 242042Z 2418/2518 32004KT P6SM FEW250
      TEMPO 2420/2422 3SM HZ SCT004
     FM242200 32006KT P6SM FEW250
     FM250000 VRB05KT 4SM BR SCT006
     FM250600 00000KT 2SM BR OVC006
     FM250800 00000KT 1/2SM FG OVC001=



000
FTUS46 KEKA 242021 CCB
TAFCEC
TAF COR
KCEC 242021Z 2418/2518 34005KT 6SM HZ SCT250
      TEMPO 2420/2422 4SM HZ FEW004
     FM242200 35006KT 6SM HZ FEW250
     FM250200 36005KT 6SM HZ SCT050
     FM250500 05003KT 6SM BR SCT050
     FM250900 00000KT 3SM BR SCT250=



000
FTUS46 KEKA 242019 CCB
TAFACV
TAF COR
KACV 242019Z 2418/2518 32004KT P6SM FEW250
      TEMPO 2419/2422 3SM BR BKN003
     FM242200 32006KT P6SM FEW250
     FM250000 VRB05KT 4SM BR SCT006
     FM250600 00000KT 2SM BR OVC006
     FM250800 00000KT 1/2SM FG OVC001=



000
FTUS46 KEKA 241842 CCA
TAFCEC
TAF COR
KCEC 241842Z 2418/2518 34005KT 6SM HZ SCT250
      TEMPO 2419/2420 3SM HZ FEW004
     FM242000 35006KT 6SM HZ FEW250
     FM242200 36005KT 6SM HZ SCT050
     FM250500 05003KT 6SM BR SCT050
     FM250900 00000KT 3SM BR SCT250=



000
FTUS46 KEKA 241839 CCA
TAFACV
TAF COR
KACV 241839Z 2418/2518 32004KT P6SM FEW250
      TEMPO 2419/2420 3SM BR BKN002
     FM242000 32006KT P6SM FEW250
     FM250000 VRB05KT 4SM BR SCT006
     FM250600 00000KT 2SM BR OVC006
     FM250800 00000KT 1/2SM FG OVC001=



000
FTUS46 KEKA 241720
TAFCEC
TAF
KCEC 241720Z 2418/2518 34005KT 5SM BR SCT250
      TEMPO 2418/2420 3SM BR FEW002
     FM242000 35006KT 6SM HZ FEW250
     FM242200 36005KT 6SM HZ SCT050
     FM250500 05003KT 6SM BR SCT050
     FM250900 00000KT 3SM BR SCT250=



000
FTUS46 KEKA 241720
TAFACV
TAF
KACV 241720Z 2418/2518 VRB03KT P6SM FEW250
     FM242000 32006KT P6SM FEW250
     FM250000 VRB05KT 4SM BR SCT006
     FM250600 00000KT 2SM BR OVC006
     FM250800 00000KT 1/2SM FG OVC001=



000
FTUS46 KEKA 241720
TAFUKI
TAF
KUKI 241720Z 2418/2518 VRB03KT P6SM FEW250
     FM250000 00000KT P6SM FEW250=



000
FTUS46 KEKA 241645 CCA
TAFCEC
TAF COR
KCEC 241645Z 2412/2512 34004KT 4SM BR SCT002 SCT250
      TEMPO 2417/2418 VV002
     FM241800 35007KT 5SM HZ FEW250
     FM242200 34006KT 6SM HZ SCT007
     FM250800 07003KT P6SM SKC=



000
FTUS46 KEKA 241644 CCA
TAFACV
TAF COR
KACV 241644Z 2416/2512 08003KT 5SM BR FEW250
      TEMPO 2417/2418 SCT002
     FM241800 30005KT 6SM HZ FEW250
     FM250000 VRB05KT 4SM BR SCT006
     FM250800 07003KT P6SM SKC=



000
FTUS46 KEKA 241606 AAB
TAFACV
TAF AMD
KACV 241606Z 2416/2512 08003KT 3SM BR FEW250
      TEMPO 2416/2418 1SM BR VV002
     FM241800 30005KT 6SM HZ FEW250
     FM250000 VRB05KT 4SM BR SCT006
     FM250800 07003KT P6SM SKC=



000
FTUS46 KEKA 241333 AAA
TAFACV
TAF AMD
KACV 241333Z 2414/2512 08003KT 3SM BR FEW250
      TEMPO 2414/2416 VV002
     FM241800 30005KT 6SM HZ FEW250
     FM250000 VRB05KT 4SM BR SCT006
     FM250800 07003KT P6SM SKC=



000
FTUS46 KEKA 241143
TAFUKI
TAF
KUKI 241143Z 2412/2512 VRB03KT P6SM FEW250=



000
FTUS46 KEKA 241143
TAFCEC
TAF
KCEC 241143Z 2412/2512 34004KT 2SM BR SCT002 BKN250
      TEMPO 2412/2415 VV002
     FM241500 02003KT 3SM BR SCT002 BKN250
     FM241700 35007KT 5SM HZ FEW250
     FM242200 34006KT 6SM HZ SCT007
     FM250800 07003KT P6SM SKC=



000
FTUS46 KEKA 241143
TAFACV
TAF
KACV 241143Z 2412/2512 08003KT 6SM BR FEW250
     FM241800 30005KT 6SM HZ FEW250
     FM250000 VRB05KT 4SM BR SCT006
     FM250800 07003KT P6SM SKC=



000
FTUS46 KEKA 240810 AAB
TAFCEC
TAF AMD
KCEC 240810Z 2408/2506 34004KT 3SM BR FEW007 FEW250
     FM241200 02003KT 6SM BR FEW250
     FM241500 00000KT P6SM FEW250
     FM241700 35007KT 5SM HZ FEW250=



000
FTUS46 KEKA 240609 AAA
TAFCEC
TAF AMD
KCEC 240609Z 2406/2506 34004KT 3SM BR FEW007 FEW250
      TEMPO 2406/2410 2SM BR OVC007
     FM241200 02003KT 6SM BR FEW250
     FM241500 00000KT P6SM FEW250
     FM241700 35007KT 5SM HZ FEW250=



000
FTUS46 KEKA 240539 CCA
TAFACV
TAF COR
KACV 240539Z 2406/2506 VRB03KT 5SM BR FEW250
     FM240800 00000KT 6SM BR FEW250
     FM241700 30007KT 5SM HZ FEW250
     FM250000 VRB05KT 4SM BR SKC=



000
FTUS46 KEKA 240538
TAFACV
TAF
KACV 240538Z 2406/2506 27006KT 5SM BR FEW250
     FM240800 00000KT 6SM BR FEW250
     FM241700 30007KT 5SM HZ FEW250
     FM250000 VRB05KT 4SM BR SKC=



000
FTUS46 KEKA 240538
TAFUKI
TAF
KUKI 240538Z 2406/2506 VRB03KT P6SM FEW250=



000
FTUS46 KEKA 240538
TAFCEC
TAF
KCEC 240538Z 2406/2506 34007KT 4SM BR FEW250
     FM241200 02003KT 6SM BR FEW250
     FM241500 00000KT P6SM FEW250
     FM241700 35007KT 5SM HZ FEW250=



000
FTUS46 KEKA 240038 AAA
TAFACV
TAF AMD
KACV 240038Z 2401/2424 27006KT 4SM BR FEW250
     FM240500 02003KT 6SM BR SCT250
     FM240800 00000KT 5SM BR SCT250
     FM241400 00000KT P6SM SCT250=



000
FTUS46 KEKA 232328
TAFUKI
TAF
KUKI 232328Z 2400/2424 VRB03KT P6SM SKC
     FM240200 00000KT P6SM SCT250
     FM240800 00000KT 6SM BR SCT250=



000
FTUS46 KEKA 232328
TAFCEC
TAF
KCEC 232328Z 2400/2424 34005KT P6SM FEW250
      TEMPO 2400/2404 5SM HZ SCT250
     FM240400 02003KT P6SM SCT250
     FM240800 00000KT 6SM BR SCT250
     FM241500 00000KT P6SM SCT250
     FM241800 35004KT P6SM FEW250=



000
FTUS46 KEKA 232328
TAFACV
TAF
KACV 232328Z 2400/2424 00000KT P6SM FEW250
     FM240100 34003KT P6SM FEW250
     FM240500 02003KT 6SM BR SCT250
     FM240800 00000KT 5SM BR SCT250
     FM241400 00000KT P6SM SCT250=



000
FTUS46 KEKA 232102 CCB
TAFCEC
TAF COR
KCEC 232102Z 2318/2418 32005KT P6SM FEW250
     FM240100 36003KT P6SM SCT250
     FM240800 00000KT 6SM BR SCT250
     FM241500 00000KT P6SM SCT250=



000
FTUS46 KEKA 232102 CCA
TAFACV
TAF COR
KACV 232102Z 2318/2418 00000KT P6SM FEW250
     FM232300 32005KT P6SM FEW250
     FM240200 02003KT P6SM SCT250
     FM240800 00000KT 6SM BR SCT250
     FM241200 00000KT P6SM SCT250=



000
FTUS46 KEKA 232013 CCA
TAFCEC
TAF COR
KCEC 232013Z 2318/2418 29006KT P6SM FEW250
      TEMPO 2320/2323 32006KT 4SM HZ SCT004
     FM232300 32005KT P6SM FEW250
     FM240100 36003KT P6SM SCT250
     FM240800 00000KT 6SM BR SCT250
     FM241500 00000KT P6SM SCT250=



000
FTUS46 KEKA 231729
TAFACV
TAF
KACV 231729Z 2318/2418 00000KT P6SM FEW250
     FM232000 32005KT P6SM FEW250
     FM240200 02003KT P6SM SCT250
     FM240800 00000KT 6SM BR SCT250
     FM241200 00000KT P6SM SCT250=



000
FTUS46 KEKA 231729
TAFUKI
TAF
KUKI 231729Z 2318/2418 00000KT P6SM FEW250
     FM232300 32003KT P6SM SKC
     FM240100 00000KT P6SM SCT250=



000
FTUS46 KEKA 231729
TAFCEC
TAF
KCEC 231729Z 2318/2418 00000KT P6SM FEW250
     FM232000 32005KT P6SM FEW250
     FM240100 36003KT P6SM SCT250
     FM240800 00000KT 6SM BR SCT250
     FM241500 00000KT P6SM SCT250=



000
FTUS46 KEKA 231701 AAA
TAFCEC
TAF AMD
KCEC 231701Z 2317/2412 00000KT P6SM FEW250
     FM231900 31005KT P6SM FEW150 FEW250
     FM240000 35004KT 6SM HZ SCT250
     FM240600 32003KT 6SM BR SCT250=



000
FTUS46 KEKA 231638 AAA
TAFUKI
TAF AMD
KUKI 231638Z 2317/2412 00000KT P6SM FEW250
     FM231900 32003KT P6SM SKC
     FM240300 00000KT P6SM SCT250=



000
FTUS46 KEKA 231637 AAA
TAFACV
TAF AMD
KACV 231637Z 2317/2412 09004KT P6SM SCT250
     FM231900 32006KT P6SM FEW250
     FM240300 04003KT 6SM BR SCT250=



000
FTUS46 KEKA 231144
TAFUKI
TAF
KUKI 231144Z 2312/2412 VRB03KT P6SM BKN250
     FM231800 32003KT P6SM SKC
     FM240300 00000KT P6SM SCT250=



000
FTUS46 KEKA 231144
TAFACV
TAF
KACV 231144Z 2312/2412 07003KT 6SM BR SCT120 BKN250
     FM231900 32006KT P6SM FEW150 SCT250
     FM240300 04003KT 6SM BR SCT250=



000
FTUS46 KEKA 231144
TAFCEC
TAF
KCEC 231144Z 2312/2412 08003KT P6SM SCT120 BKN250
     FM231900 31005KT P6SM FEW150 SCT250
     FM240000 35004KT 6SM HZ SCT250
     FM240600 32003KT 6SM BR SCT250=



000
FTUS46 KEKA 230542
TAFCEC
TAF
KCEC 230542Z 2306/2406 VRB03KT P6SM BKN150
     FM231800 33004KT P6SM FEW100 BKN250
     FM240000 33004KT 4SM BR FEW250=



000
FTUS46 KEKA 230542
TAFACV
TAF
KACV 230542Z 2306/2406 VRB03KT P6SM SCT250
     FM231800 31004KT P6SM FEW100 BKN250
     FM240000 32004KT 5SM BR FEW250=



000
FTUS46 KEKA 230542
TAFUKI
TAF
KUKI 230542Z 2306/2406 VRB03KT P6SM SCT250=



000
FTUS46 KEKA 230331 AAA
TAFCEC
TAF AMD
KCEC 230331Z 2304/2324 35004KT 4SM BR SCT250
     FM230600 00000KT P6SM SCT250
     FM231800 33004KT P6SM FEW250=



000
FTUS46 KEKA 222325
TAFUKI
TAF
KUKI 222325Z 2300/2324 00000KT P6SM FEW250
     FM231200 00000KT P6SM SKC=



000
FTUS46 KEKA 222325
TAFCEC
TAF
KCEC 222325Z 2300/2324 30005KT P6SM FEW250
     FM230000 01003KT P6SM SCT250
     FM230600 00000KT P6SM SCT250
     FM231800 33004KT P6SM FEW250=



000
FTUS46 KEKA 222325
TAFACV
TAF
KACV 222325Z 2300/2324 33004KT P6SM FEW250
     FM230200 01002KT P6SM SCT250
     FM230500 00000KT P6SM SCT250
     FM231100 00000KT P6SM BKN250
     FM231600 06005KT P6SM SCT250=



    US Dept of Commerce
    National Oceanic and Atmospheric Administration
    National Weather Service
    1325 East West Highway
    Silver Spring, MD 20910
    Page Author: NWS Internet Services Team
Disclaimer
Information Quality
Credits
Glossary
Privacy Policy
Freedom of Information Act (FOIA)
About Us
Career Opportunities